Alts de Caldas, Puerto Rico
Current Conditions -  °F | °C
As of 5:56 PM on Thursday 18 Dec 2014 (Local Time) from TJSJ Reporting Station
Scattered Clouds Scattered Clouds  
Wind Chill: 78°   Ceiling: Unl
Heat Index: 80°   Visibility: 10mi
Dew Point: 70°   Wind: 5mph
Humidity: 76%   Direction: 80°E
Pressure: 29.98"   Gusts: NA
Location:  18.3754°N, 66.0577°W
Report Text: TJSJ 182156Z 08004KT 10SM SCT034 SCT060 26/21 A2998 RMK AO2 SLP151 SHRA DSNT N W T02560211
Loading
Personal Weather Stations






























Interactive Weather Map New forecast layout! Learn more

10-Day Weather Forecast

Advertisements
Track Severe Weather on mobile